Accueil
METAR-TAF:

METAR-TAF

Aéroports :

Aéroport de Kameshli

Al Qamishli, Syrie

latitude: 37-03N, longitude: 041-13E, altitude: 455 m

Observation

Le bulletin a été fait il y a 2 heures et 59 minutes, à 21:00 UTC
Vent 12 kt de nord-est
Température 8°C
Humidité 87%
Pression 1018 hPa
Visibilité: 2500 m
Nuages épars à une hauteur de 2600 ft
Ciel couvert à une hauteur de 10000 ft
pluie

METAR: OSKL 102100Z 05012KT 2500 RA SCT026 OVC100 08/06 Q1018

Heure: 01:59 (23:59 UTC)


TAF: absent

Observations et prévisions météorologiques de plus de 4000 aéroports (messages METAR et TAF).

Les stations disponibles sont représentées par des disques jaunes et rouges sur la carte.

Passer la souris dessus pour voir le nom de la station.

Cliquer dessus pour voir les observations et prévisions météorologiques.

Pour changer de carte: cliquez sur les boutons verts avec une croix noire pour zoomer, sur le bouton vert avec un tiret pour effectuer un zoom arrière, ou sur les flèches vertes pour les cartes adjacentes.


METAR-TAF: